createdAt,value
2019-01-04T00:04:16.582Z,85.72
2019-01-04T00:06:45.180Z,85.50
2019-01-04T00:09:13.758Z,85.31
2019-01-04T00:11:42.322Z,85.18
2019-01-04T00:14:10.963Z,85.13
2019-01-04T00:16:39.530Z,85.54
2019-01-04T00:19:08.176Z,85.06
2019-01-04T00:21:56.079Z,84.69
2019-01-04T00:24:24.667Z,84.69
2019-01-04T00:26:53.246Z,85.29
2019-01-04T00:29:21.822Z,85.64
2019-01-04T00:31:50.382Z,85.99
2019-01-04T00:34:18.958Z,85.92
2019-01-04T00:36:47.525Z,86.10
2019-01-04T00:39:16.112Z,86.07
2019-01-04T00:41:44.682Z,86.25
2019-01-04T00:44:13.259Z,86.15
2019-01-04T00:46:41.822Z,86.67
2019-01-04T00:49:10.448Z,86.82
2019-01-04T00:51:38.988Z,86.53
2019-01-04T00:54:07.643Z,86.33
2019-01-04T00:56:56.987Z,85.83
2019-01-04T00:59:46.357Z,85.71
2019-01-04T01:02:35.714Z,85.95
2019-01-04T01:05:25.178Z,86.62
2019-01-04T01:08:32.376Z,86.62
2019-01-04T01:11:39.583Z,86.63
2019-01-04T01:14:46.788Z,85.93
2019-01-04T01:17:36.129Z,85.94
2019-01-04T01:20:43.354Z,86.03
2019-01-04T01:23:32.786Z,86.45
2019-01-04T01:26:22.161Z,85.98
2019-01-04T01:29:11.630Z,85.87
2019-01-04T01:32:00.990Z,85.90
2019-01-04T01:35:08.199Z,86.21
2019-01-04T01:38:15.345Z,86.06
2019-01-04T01:41:22.573Z,86.36
2019-01-04T01:44:29.761Z,87.16
2019-01-04T01:47:19.142Z,87.65
2019-01-04T01:50:26.353Z,86.64
2019-01-04T01:55:48.154Z,87.43
2019-01-04T01:58:16.727Z,87.17
2019-01-04T02:00:45.314Z,87.24
2019-01-04T02:03:13.940Z,87.06
2019-01-04T02:05:42.531Z,88.38
2019-01-04T02:08:11.109Z,87.92
2019-01-04T02:10:39.705Z,87.54
2019-01-04T02:13:08.266Z,87.35
2019-01-04T02:15:36.844Z,87.07
2019-01-04T02:18:05.411Z,87.90
2019-01-04T02:20:33.997Z,87.37
2019-01-04T02:23:02.562Z,87.53
2019-01-04T02:25:31.143Z,87.73
2019-01-04T02:27:59.699Z,87.89
2019-01-04T02:30:28.287Z,87.51
2019-01-04T02:32:56.849Z,87.76
2019-01-04T02:35:25.430Z,87.49
2019-01-04T02:37:53.998Z,87.37
2019-01-04T02:40:22.579Z,87.34
2019-01-04T02:42:51.210Z,87.57
2019-01-04T02:45:19.813Z,88.22
2019-01-04T02:47:48.382Z,88.29
2019-01-04T02:50:16.972Z,88.47
2019-01-04T02:52:45.531Z,88.47
2019-01-04T02:55:14.087Z,88.53
2019-01-04T02:57:42.674Z,89.23
2019-01-04T03:00:11.288Z,89.43
2019-01-04T03:02:39.875Z,89.09
2019-01-04T03:05:08.521Z,89.63
2019-01-04T03:07:37.108Z,88.88
2019-01-04T03:10:05.735Z,89.36
2019-01-04T03:12:34.326Z,89.38
2019-01-04T03:15:02.892Z,89.91
2019-01-04T03:20:27.536Z,89.56
2019-01-04T03:22:56.108Z,89.36
2019-01-04T03:25:24.676Z,89.47
2019-01-04T03:27:53.260Z,89.22
2019-01-04T03:30:21.823Z,89.25
2019-01-04T03:32:50.543Z,89.26
2019-01-04T03:35:19.141Z,89.04
2019-01-04T03:37:47.703Z,89.32
2019-01-04T03:40:16.262Z,89.88
2019-01-04T03:42:44.849Z,90.15
2019-01-04T03:45:13.413Z,90.71
2019-01-04T03:47:42.006Z,89.86
2019-01-04T03:50:10.647Z,89.93
2019-01-04T03:52:39.231Z,90.61
2019-01-04T03:55:07.902Z,90.98
2019-01-04T03:57:36.455Z,90.98
2019-01-04T04:00:25.810Z,90.74
2019-01-04T04:02:54.395Z,90.64
2019-01-04T04:05:22.953Z,91.01
2019-01-04T04:07:51.531Z,90.99
2019-01-04T04:10:20.076Z,90.45
2019-01-04T04:12:48.668Z,89.62
2019-01-04T04:15:17.255Z,90.84
2019-01-04T04:17:45.832Z,90.70
2019-01-04T04:20:14.394Z,90.47
2019-01-04T04:22:42.983Z,91.04
2019-01-04T04:25:11.544Z,91.09
2019-01-04T04:27:40.101Z,91.17
2019-01-04T04:30:29.464Z,91.33
2019-01-04T04:32:58.085Z,91.44
2019-01-04T04:35:26.663Z,91.64
2019-01-04T04:37:55.232Z,92.41
2019-01-04T04:40:23.803Z,91.75
2019-01-04T04:42:52.359Z,91.30
2019-01-04T04:45:20.952Z,90.74
2019-01-04T04:47:49.510Z,90.53
2019-01-04T04:50:18.102Z,91.12
2019-01-04T04:52:46.666Z,91.49
2019-01-04T04:55:15.270Z,90.86
2019-01-04T04:57:43.822Z,90.11
2019-01-04T05:00:12.410Z,90.29
2019-01-04T05:02:40.977Z,90.52
2019-01-04T05:05:09.580Z,90.46
2019-01-04T05:07:38.133Z,90.67
2019-01-04T05:10:06.771Z,90.81
2019-01-04T05:12:35.333Z,90.60
2019-01-04T05:15:03.988Z,90.64
2019-01-04T05:17:32.560Z,90.93
2019-01-04T05:20:01.154Z,90.41
2019-01-04T05:22:29.753Z,91.12
2019-01-04T05:24:58.347Z,90.78
2019-01-04T05:27:26.902Z,90.82
2019-01-04T05:29:55.484Z,90.22
2019-01-04T05:32:24.040Z,89.73
2019-01-04T05:34:52.610Z,90.41
2019-01-04T05:37:21.209Z,89.80
2019-01-04T05:39:49.778Z,90.94
2019-01-04T05:42:18.367Z,90.50
2019-01-04T05:44:46.942Z,90.19
2019-01-04T05:47:15.533Z,89.87
2019-01-04T05:49:44.090Z,89.79
2019-01-04T05:52:12.678Z,89.77
2019-01-04T05:54:41.247Z,89.49
2019-01-04T05:57:09.845Z,89.46
2019-01-04T05:59:38.413Z,89.62
2019-01-04T06:02:07.015Z,89.53
2019-01-04T06:04:35.583Z,89.46
2019-01-04T06:07:04.180Z,89.42
2019-01-04T06:09:32.747Z,89.30
2019-01-04T06:12:01.346Z,89.55
2019-01-04T06:14:29.901Z,89.20
2019-01-04T06:16:58.493Z,89.27
2019-01-04T06:19:27.060Z,89.74
2019-01-04T06:21:55.651Z,89.30
2019-01-04T06:24:24.200Z,89.17
2019-01-04T06:26:52.786Z,89.05
2019-01-04T06:29:21.351Z,89.31
2019-01-04T06:31:49.919Z,89.33
2019-01-04T06:34:18.511Z,89.32
2019-01-04T06:36:47.072Z,89.15
2019-01-04T06:39:15.662Z,89.40
2019-01-04T06:41:44.256Z,89.46
2019-01-04T06:44:12.854Z,89.29
2019-01-04T06:47:20.001Z,89.09
2019-01-04T06:49:48.582Z,89.59
2019-01-04T06:52:17.154Z,89.95
2019-01-04T06:55:24.321Z,90.45
2019-01-04T06:57:52.915Z,90.56
2019-01-04T07:00:21.479Z,90.34
2019-01-04T07:02:50.105Z,90.54
2019-01-04T07:05:18.661Z,90.58
2019-01-04T07:07:47.238Z,89.94
2019-01-04T07:10:15.818Z,90.17
2019-01-04T07:12:44.375Z,90.80
2019-01-04T07:15:12.973Z,90.98
2019-01-04T07:17:41.534Z,91.40
2019-01-04T07:20:10.118Z,91.57
2019-01-04T07:22:38.684Z,90.83
2019-01-04T07:25:07.276Z,90.72
2019-01-04T07:27:35.837Z,91.24
2019-01-04T07:30:25.207Z,91.80
2019-01-04T07:32:53.762Z,91.70
2019-01-04T07:35:22.346Z,91.96
2019-01-04T07:37:50.895Z,92.68
2019-01-04T07:40:19.489Z,93.45
2019-01-04T07:42:48.049Z,93.72
2019-01-04T07:45:16.643Z,92.92
2019-01-04T07:47:45.201Z,93.55
2019-01-04T07:50:13.784Z,93.72
2019-01-04T07:53:01.465Z,93.92
2019-01-04T07:55:30.062Z,93.50
2019-01-04T07:57:58.647Z,93.68
2019-01-04T08:00:27.228Z,93.27
2019-01-04T08:03:14.982Z,92.89
2019-01-04T08:05:43.562Z,93.68
2019-01-04T08:08:12.137Z,93.80
2019-01-04T08:10:40.712Z,93.59
2019-01-04T08:13:09.283Z,93.91
2019-01-04T08:15:37.870Z,93.91
2019-01-04T08:18:06.434Z,93.68
2019-01-04T08:20:35.015Z,94.24
2019-01-04T08:23:03.568Z,93.95
2019-01-04T08:25:32.151Z,94.57
2019-01-04T08:28:00.739Z,94.12
2019-01-04T08:30:29.322Z,94.54
2019-01-04T08:32:57.889Z,94.38
2019-01-04T08:35:26.471Z,94.25
2019-01-04T08:37:55.050Z,94.51
2019-01-04T08:40:23.633Z,94.59
2019-01-04T08:42:52.226Z,94.57
2019-01-04T08:45:20.787Z,94.22
2019-01-04T08:47:49.370Z,94.82
2019-01-04T08:50:17.932Z,95.17
2019-01-04T08:52:46.517Z,94.72
2019-01-04T08:55:35.902Z,95.58
2019-01-04T08:58:04.481Z,94.78
2019-01-04T09:00:33.046Z,94.77
2019-01-04T09:03:01.632Z,95.45
2019-01-04T09:05:30.190Z,94.79
2019-01-04T09:07:58.767Z,95.12
2019-01-04T09:10:27.327Z,94.97
2019-01-04T09:12:55.909Z,95.21
2019-01-04T09:15:24.456Z,94.71
2019-01-04T09:17:53.049Z,94.58
2019-01-04T09:20:21.606Z,94.66
2019-01-04T09:22:50.192Z,94.57
2019-01-04T09:25:38.082Z,94.77
2019-01-04T09:28:06.663Z,95.19
2019-01-04T09:30:35.282Z,95.36
2019-01-04T09:33:03.863Z,95.30
2019-01-04T09:35:32.423Z,95.48
2019-01-04T09:38:01.004Z,95.52
2019-01-04T09:40:29.561Z,95.05
2019-01-04T09:42:58.145Z,95.09
2019-01-04T09:45:26.719Z,96.07
2019-01-04T09:47:55.295Z,95.54
2019-01-04T09:50:23.864Z,95.54
2019-01-04T09:52:52.463Z,95.92
2019-01-04T09:55:21.032Z,95.79
2019-01-04T09:57:49.684Z,96.19
2019-01-04T10:00:18.209Z,96.56
2019-01-04T10:05:20.710Z,96.41
2019-01-04T10:07:49.267Z,96.47
2019-01-04T10:10:17.861Z,96.20
2019-01-04T10:12:46.428Z,94.97
2019-01-04T10:15:35.800Z,96.02
2019-01-04T10:18:04.359Z,96.01
2019-01-04T10:20:32.951Z,96.58
2019-01-04T10:23:01.515Z,96.46
2019-01-04T10:25:30.102Z,96.65
2019-01-04T10:27:58.682Z,96.72
2019-01-04T10:30:27.410Z,96.79
2019-01-04T10:32:56.038Z,96.87
2019-01-04T10:35:24.626Z,96.76
2019-01-04T10:37:53.186Z,96.73
2019-01-04T10:40:21.776Z,96.91
2019-01-04T10:42:50.335Z,96.57
2019-01-04T10:45:18.912Z,96.64
2019-01-04T10:47:47.467Z,96.61
2019-01-04T10:50:16.048Z,96.99
2019-01-04T10:52:44.610Z,97.33
2019-01-04T10:55:13.224Z,97.65
2019-01-04T10:57:41.787Z,97.71
2019-01-04T11:00:31.163Z,97.75
2019-01-04T11:02:59.722Z,97.37
2019-01-04T11:05:28.315Z,97.85
2019-01-04T11:07:56.882Z,97.33
2019-01-04T11:10:25.471Z,97.60
2019-01-04T11:12:54.025Z,97.73
2019-01-04T11:15:22.605Z,97.43
2019-01-04T11:17:51.163Z,97.62
2019-01-04T11:20:40.065Z,97.52
2019-01-04T11:23:29.446Z,97.39
2019-01-04T11:26:36.645Z,97.77
2019-01-04T11:29:43.846Z,98.09
2019-01-04T11:32:33.298Z,98.22
2019-01-04T11:35:40.479Z,97.94
2019-01-04T11:38:29.906Z,97.73
2019-01-04T11:41:19.271Z,97.60
2019-01-04T11:44:08.742Z,97.52
2019-01-04T11:46:58.097Z,97.50
2019-01-04T11:49:47.548Z,97.38
2019-01-04T11:52:36.924Z,97.24
2019-01-04T11:55:26.291Z,97.28
2019-01-04T11:57:54.897Z,97.70
2019-01-04T12:00:23.439Z,97.74
2019-01-04T12:02:52.025Z,97.42
2019-01-04T12:05:20.578Z,97.61
2019-01-04T12:07:49.155Z,97.88
2019-01-04T12:10:17.716Z,98.06
2019-01-04T12:12:46.301Z,97.88
2019-01-04T12:15:14.877Z,97.80
2019-01-04T12:17:43.468Z,97.66
2019-01-04T12:20:12.024Z,97.72
2019-01-04T12:22:40.608Z,97.87
2019-01-04T12:25:09.174Z,98.42
2019-01-04T12:27:37.774Z,98.15
2019-01-04T12:30:27.123Z,97.62
2019-01-04T12:32:55.713Z,97.69
2019-01-04T12:35:24.792Z,97.74
2019-01-04T12:37:54.582Z,97.99
2019-01-04T12:40:23.166Z,97.69
2019-01-04T12:42:51.747Z,97.87
2019-01-04T12:45:40.931Z,98.06
2019-01-04T12:48:09.512Z,97.98
2019-01-04T12:50:38.072Z,97.84
2019-01-04T12:53:06.651Z,98.40
2019-01-04T12:55:35.218Z,98.03
2019-01-04T12:58:03.801Z,97.92
2019-01-04T13:00:32.396Z,98.83
2019-01-04T13:03:00.955Z,97.37
2019-01-04T13:05:29.567Z,98.41
2019-01-04T13:07:58.108Z,98.87
2019-01-04T13:10:26.698Z,98.41
2019-01-04T13:12:55.257Z,98.52
2019-01-04T13:15:23.853Z,99.03
2019-01-04T13:17:52.412Z,98.82
2019-01-04T13:20:21.124Z,99.40
2019-01-04T13:22:49.678Z,99.49
2019-01-04T13:25:18.261Z,99.48
2019-01-04T13:27:46.827Z,98.83
2019-01-04T13:30:15.415Z,98.49
2019-01-04T13:32:43.988Z,98.81
2019-01-04T13:35:12.570Z,98.95
2019-01-04T13:37:41.145Z,99.45
2019-01-04T13:40:09.726Z,99.79
2019-01-04T13:42:38.282Z,99.77
2019-01-04T13:45:27.656Z,99.38
2019-01-04T13:47:56.209Z,99.66
2019-01-04T13:50:24.800Z,99.57
2019-01-04T13:52:53.378Z,99.51
2019-01-04T13:55:21.990Z,99.66
2019-01-04T13:57:50.538Z,99.49
2019-01-04T14:03:06.901Z,100.00
2019-01-04T14:05:35.485Z,99.37
2019-01-04T14:08:04.039Z,99.68
2019-01-04T14:10:32.621Z,99.79
2019-01-04T14:13:01.189Z,99.45
2019-01-04T14:15:29.787Z,99.19
2019-01-04T14:17:58.328Z,99.21
2019-01-04T14:20:26.882Z,99.24
2019-01-04T14:22:55.480Z,99.58
2019-01-04T14:25:24.045Z,99.82
2019-01-04T14:27:52.626Z,99.37
2019-01-04T14:33:10.275Z,100.00
2019-01-04T14:35:38.822Z,99.66
2019-01-04T14:38:07.416Z,99.77
2019-01-04T14:40:36.063Z,99.58
2019-01-04T14:43:04.648Z,100.00
2019-01-04T14:45:33.208Z,100.00
2019-01-04T14:48:01.883Z,100.00
2019-01-04T14:50:30.473Z,99.73
2019-01-04T14:52:59.056Z,100.00
2019-01-04T14:55:27.615Z,100.00
2019-01-04T14:57:56.201Z,99.93
2019-01-04T15:00:24.784Z,99.85
2019-01-04T15:02:53.355Z,99.90
2019-01-04T15:05:21.906Z,99.80
2019-01-04T15:07:50.493Z,99.65
2019-01-04T15:10:19.039Z,99.92
2019-01-04T15:12:47.622Z,99.95
2019-01-04T15:15:16.202Z,100.00
2019-01-04T15:17:44.830Z,100.00
2019-01-04T15:20:13.345Z,100.00
2019-01-04T15:22:41.942Z,100.00
2019-01-04T15:25:10.502Z,100.00
2019-01-04T15:27:39.090Z,100.00
2019-01-04T15:33:21.677Z,100.00
2019-01-04T15:35:50.206Z,100.00
2019-01-04T15:38:18.793Z,100.00
2019-01-04T15:40:47.359Z,100.00
2019-01-04T15:43:15.943Z,100.00
2019-01-04T15:45:44.504Z,100.00
2019-01-04T15:48:13.093Z,100.00
2019-01-04T15:50:41.665Z,100.00
2019-01-04T15:53:10.258Z,100.00
2019-01-04T15:55:38.812Z,100.00
2019-01-04T15:58:07.408Z,100.00
2019-01-04T16:00:35.984Z,100.00
2019-01-04T16:03:04.540Z,100.00
2019-01-04T16:05:33.150Z,100.00
2019-01-04T16:08:01.716Z,100.00
2019-01-04T16:10:30.503Z,100.00
2019-01-04T16:12:59.068Z,100.00
2019-01-04T16:15:27.687Z,100.00
2019-01-04T16:17:56.484Z,100.00
2019-01-04T16:20:25.091Z,100.00
2019-01-04T16:22:53.651Z,100.00
2019-01-04T16:25:22.255Z,100.00
2019-01-04T16:27:50.812Z,100.00
2019-01-04T16:30:19.622Z,100.00
2019-01-04T16:32:48.189Z,100.00
2019-01-04T16:35:16.768Z,100.00
2019-01-04T16:37:45.331Z,100.00
2019-01-04T16:40:13.915Z,100.00
2019-01-04T16:42:42.488Z,100.00
2019-01-04T16:45:11.072Z,100.00
2019-01-04T16:47:39.697Z,100.00
2019-01-04T16:50:29.066Z,100.00
2019-01-04T16:55:51.014Z,100.00
2019-01-04T16:58:19.570Z,100.00
2019-01-04T17:00:48.158Z,100.00
2019-01-04T17:03:16.731Z,100.00
2019-01-04T17:05:45.319Z,100.00
2019-01-04T17:08:13.952Z,100.00
2019-01-04T17:10:42.566Z,100.00
2019-01-04T17:13:11.138Z,100.00
2019-01-04T17:15:39.723Z,100.00
2019-01-04T17:18:27.401Z,100.00
2019-01-04T17:20:55.983Z,100.00
2019-01-04T17:23:24.550Z,100.00
2019-01-04T17:25:53.137Z,100.00
2019-01-04T17:28:21.690Z,100.00
2019-01-04T17:30:50.322Z,100.00
2019-01-04T17:33:18.888Z,100.00
2019-01-04T17:35:47.456Z,100.00
2019-01-04T17:38:16.090Z,100.00
2019-01-04T17:40:44.653Z,99.89
2019-01-04T17:43:13.229Z,99.86
2019-01-04T17:45:41.786Z,99.99
2019-01-04T17:48:10.376Z,99.83
2019-01-04T17:50:38.938Z,99.77
2019-01-04T17:53:07.527Z,99.71
2019-01-04T17:55:36.093Z,99.68
2019-01-04T17:58:04.976Z,99.70
2019-01-04T18:00:33.559Z,99.64
2019-01-04T18:03:02.131Z,99.49
2019-01-04T18:05:30.688Z,99.37
2019-01-04T18:07:59.265Z,99.41
2019-01-04T18:10:27.820Z,99.38
2019-01-04T18:12:56.408Z,99.20
2019-01-04T18:15:24.973Z,99.20
2019-01-04T18:17:58.568Z,99.15
2019-01-04T18:20:23.835Z,99.15
2019-01-04T18:22:52.421Z,99.28
2019-01-04T18:25:20.981Z,99.15
2019-01-04T18:27:49.568Z,98.93
2019-01-04T18:30:18.134Z,98.98
2019-01-04T18:32:46.706Z,98.93
2019-01-04T18:35:15.270Z,98.85
2019-01-04T18:37:43.853Z,98.70
2019-01-04T18:40:12.409Z,98.55
2019-01-04T18:42:40.990Z,98.63
2019-01-04T18:45:09.622Z,98.49
2019-01-04T18:47:57.383Z,98.62
2019-01-04T18:53:13.465Z,98.35
2019-01-04T18:55:42.024Z,98.36
2019-01-04T18:58:10.608Z,98.13
2019-01-04T19:00:39.193Z,98.21
2019-01-04T19:03:07.778Z,98.13
2019-01-04T19:05:36.362Z,98.04
2019-01-04T19:08:04.936Z,98.11
2019-01-04T19:10:52.830Z,98.22
2019-01-04T19:13:26.665Z,98.21
2019-01-04T19:15:51.692Z,98.09
2019-01-04T19:18:20.244Z,97.89
2019-01-04T19:20:48.828Z,97.92
2019-01-04T19:23:17.393Z,97.73
2019-01-04T19:25:45.985Z,97.72
2019-01-04T19:28:14.549Z,97.76
2019-01-04T19:31:02.244Z,97.73
2019-01-04T19:33:30.829Z,97.64
2019-01-04T19:35:59.407Z,97.63
2019-01-04T19:41:15.428Z,97.34
2019-01-04T19:43:43.990Z,97.32
2019-01-04T19:46:12.566Z,97.44
2019-01-04T19:49:02.174Z,97.48
2019-01-04T19:51:31.203Z,97.45
2019-01-04T19:53:59.772Z,97.58
2019-01-04T19:56:28.357Z,97.60
2019-01-04T19:58:56.936Z,97.69
2019-01-04T20:01:25.545Z,97.62
2019-01-04T20:03:54.110Z,97.60
2019-01-04T20:07:02.932Z,97.80
2019-01-04T20:10:29.779Z,97.65
2019-01-04T20:17:08.970Z,97.70
2019-01-04T20:20:17.489Z,98.07
2019-01-04T20:23:05.173Z,97.74
2019-01-04T20:28:28.376Z,97.95
2019-01-04T20:31:16.118Z,97.95
2019-01-04T20:34:03.849Z,98.11
2019-01-04T20:36:51.739Z,98.04
2019-01-04T20:42:28.528Z,97.98
2019-01-04T20:45:16.220Z,98.29
2019-01-04T20:48:03.954Z,98.73
2019-01-04T20:53:27.075Z,98.46
2019-01-04T20:56:14.808Z,98.71
2019-01-04T21:01:51.585Z,99.03
2019-01-04T21:04:39.291Z,99.30
2019-01-04T21:10:02.538Z,99.92
2019-01-04T21:12:50.318Z,100.00
2019-01-04T21:15:38.037Z,100.00
2019-01-04T21:18:25.751Z,99.90
2019-01-04T21:21:13.463Z,100.00
2019-01-04T21:24:01.174Z,100.00
2019-01-04T21:29:34.594Z,100.00
2019-01-04T21:32:22.390Z,100.00
2019-01-04T21:35:10.084Z,100.00
2019-01-04T21:37:57.836Z,100.00
2019-01-04T21:40:45.583Z,100.00
2019-01-04T21:43:33.315Z,100.00
2019-01-04T21:46:21.140Z,100.00
2019-01-04T21:49:08.956Z,100.00
2019-01-04T21:51:56.707Z,100.00
2019-01-04T21:57:30.899Z,100.00
2019-01-04T22:02:54.072Z,100.00
2019-01-04T22:05:41.767Z,100.00
2019-01-04T22:11:04.996Z,100.00
2019-01-04T22:13:52.715Z,100.00
2019-01-04T22:16:40.410Z,100.00
2019-01-04T22:19:28.143Z,100.00
2019-01-04T22:22:15.827Z,100.00
2019-01-04T22:25:03.643Z,100.00
2019-01-04T22:27:51.374Z,100.00
2019-01-04T22:30:39.102Z,100.00
2019-01-04T22:33:26.807Z,100.00
2019-01-04T22:36:14.632Z,100.00
2019-01-04T22:39:02.555Z,100.00
2019-01-04T22:44:39.446Z,100.00
2019-01-04T22:50:20.954Z,100.00
2019-01-04T22:55:55.573Z,100.00
2019-01-04T22:58:43.337Z,100.00
2019-01-04T23:04:06.708Z,100.00
2019-01-04T23:06:54.550Z,100.00
2019-01-04T23:12:31.390Z,100.00
2019-01-04T23:15:19.972Z,100.00
2019-01-04T23:20:56.867Z,100.00
2019-01-04T23:26:33.633Z,100.00
2019-01-04T23:29:21.362Z,100.00
2019-01-04T23:32:09.094Z,100.00
2019-01-04T23:34:56.808Z,100.00
2019-01-04T23:37:44.514Z,100.00
2019-01-04T23:40:32.239Z,100.00
2019-01-04T23:43:19.983Z,100.00
2019-01-04T23:48:43.042Z,100.00
2019-01-04T23:51:32.265Z,100.00
2019-01-04T23:54:20.009Z,100.00
2019-01-04T23:57:07.758Z,100.00
2019-01-04T23:59:55.539Z,100.00
